Cincinnati, Ohio
Current Conditions -  °F | °C
As of 4:53 PM on Monday 22 Dec 2014 (Local Time) from KLUK Reporting Station
Overcast Overcast  
Wind Chill: 47°   Ceiling: 11000
Heat Index: 49°   Visibility: 10mi
Dew Point: 38°   Wind: 5mph
Humidity: 66%   Direction: 120°ESE
Pressure: 29.83"   Gusts: NA
Location:  39.11°N, 84.5°W
Report Text: KLUK 222153Z 12004KT 10SM OVC110 09/03 A2983 RMK AO2 SLP105 T00940033
Loading
Personal Weather Stations






























Interactive Weather Map New forecast layout! Learn more

10-Day Weather Forecast

Advertisements
Track Severe Weather on mobile